Time,TemperatureF,DewpointF,PressureIn,WindDirection,WindDirectionDegrees,WindSpeedMPH,WindSpeedGustMPH,Humidity,HourlyPrecipIn,Conditions,Clouds,dailyrainin,SolarRadiationWatts/m^2,SoftwareType,DateUTC
2013-04-20 00:21:00,15.0,8.0,-100.00,SSW,207,0.0,2.0,72,0.00,,,0.00,0.000000,,2013-04-20 08:21:00,
2013-04-20 00:31:00,15.0,8.0,-100.00,SSW,207,0.0,2.0,72,0.00,,,0.00,0.000000,,2013-04-20 08:31:00,
2013-04-20 00:42:00,15.0,8.0,-100.00,SSW,207,0.0,2.0,72,0.00,,,0.00,0.000000,,2013-04-20 08:42:00,
2013-04-20 00:51:00,15.0,8.0,-100.00,SSW,207,0.0,2.0,72,0.00,,,0.00,0.000000,,2013-04-20 08:51:00,
2013-04-20 01:21:00,13.0,6.0,-100.00,SSE,162,1.0,3.0,73,0.00,,,0.00,0.000000,,2013-04-20 09:21:00,
2013-04-20 01:32:00,13.0,6.0,-100.00,SSE,162,1.0,3.0,73,0.00,,,0.00,0.000000,,2013-04-20 09:32:00,
2013-04-20 01:43:00,13.0,6.0,-100.00,SSE,162,1.0,3.0,73,0.00,,,0.00,0.000000,,2013-04-20 09:43:00,
2013-04-20 01:52:00,13.0,6.0,-100.00,SSE,162,1.0,3.0,73,0.00,,,0.00,0.000000,,2013-04-20 09:52:00,
2013-04-20 02:23:00,10.0,4.0,-100.00,South,184,0.0,2.0,76,0.00,,,0.00,0.000000,,2013-04-20 10:23:00,
2013-04-20 02:33:00,10.0,4.0,-100.00,South,184,0.0,2.0,76,0.00,,,0.00,0.000000,,2013-04-20 10:33:00,
2013-04-20 02:42:00,10.0,4.0,-100.00,South,184,0.0,2.0,76,0.00,,,0.00,0.000000,,2013-04-20 10:42:00,
2013-04-20 02:52:00,10.0,4.0,-100.00,South,184,0.0,2.0,76,0.00,,,0.00,0.000000,,2013-04-20 10:52:00,
2013-04-20 03:23:00,8.0,3.0,-100.00,South,178,1.0,3.0,80,0.00,,,-99.99,0.000000,,2013-04-20 11:23:00,
2013-04-20 03:32:00,8.0,3.0,-100.00,South,178,1.0,3.0,80,0.00,,,-99.99,0.000000,,2013-04-20 11:32:00,
2013-04-20 03:42:00,8.0,3.0,-100.00,South,178,1.0,3.0,80,0.00,,,-99.99,0.000000,,2013-04-20 11:42:00,
2013-04-20 03:52:00,8.0,3.0,-100.00,South,178,1.0,3.0,80,0.00,,,-99.99,0.000000,,2013-04-20 11:52:00,
2013-04-20 04:22:00,5.0,1.0,-100.00,East,96,0.0,3.0,84,0.00,,,0.00,0.000000,,2013-04-20 12:22:00,
2013-04-20 04:32:00,5.0,1.0,-100.00,East,96,0.0,3.0,84,0.00,,,0.00,0.000000,,2013-04-20 12:32:00,
2013-04-20 05:52:00,3.0,-1.0,-100.00,South,179,0.0,2.0,83,-99.99,,,0.00,0.000000,,2013-04-20 13:52:00,
2013-04-20 06:21:00,1.0,-3.0,-100.00,South,182,1.0,1.0,83,-99.99,,,-99.99,1.000000,,2013-04-20 14:21:00,
2013-04-20 06:31:00,1.0,-3.0,-100.00,South,182,1.0,1.0,83,-99.99,,,-99.99,1.000000,,2013-04-20 14:31:00,
2013-04-20 07:21:00,2.0,-2.0,-100.00,SSE,154,0.0,2.0,81,-99.99,,,0.00,17.000000,,2013-04-20 15:21:00,
2013-04-20 07:33:00,2.0,-2.0,-100.00,SSE,154,0.0,2.0,81,-99.99,,,0.00,17.000000,,2013-04-20 15:33:00,
2013-04-20 07:43:00,2.0,-2.0,-100.00,SSE,154,0.0,2.0,81,-99.99,,,0.00,17.000000,,2013-04-20 15:43:00,
2013-04-20 07:53:00,2.0,-2.0,-100.00,SSE,154,0.0,2.0,81,-99.99,,,0.00,17.000000,,2013-04-20 15:53:00,
2013-04-20 08:23:00,18.0,5.0,-100.00,SE,137,0.0,1.0,55,0.00,,,0.00,164.000000,,2013-04-20 16:23:00,
2013-04-20 08:32:00,18.0,5.0,-100.00,SE,137,0.0,1.0,55,0.00,,,0.00,164.000000,,2013-04-20 16:32:00,
2013-04-20 08:42:00,18.0,5.0,-100.00,SE,137,0.0,1.0,55,0.00,,,0.00,164.000000,,2013-04-20 16:42:00,
2013-04-20 08:52:00,18.0,5.0,-100.00,SE,137,0.0,1.0,55,0.00,,,0.00,164.000000,,2013-04-20 16:52:00,
2013-04-20 09:22:00,29.0,7.0,-100.00,East,80,1.0,3.0,38,0.00,,,0.00,337.000000,,2013-04-20 17:22:00,
2013-04-20 09:33:00,29.0,7.0,-100.00,East,80,1.0,3.0,38,0.00,,,0.00,337.000000,,2013-04-20 17:33:00,
2013-04-20 09:42:00,29.0,7.0,-100.00,East,80,1.0,3.0,38,0.00,,,0.00,337.000000,,2013-04-20 17:42:00,
2013-04-20 09:52:00,29.0,7.0,-100.00,East,80,1.0,3.0,38,0.00,,,0.00,337.000000,,2013-04-20 17:52:00,
2013-04-20 10:22:00,36.0,8.0,-100.00,NE,52,1.0,4.0,31,0.00,,,0.00,492.000000,,2013-04-20 18:22:00,
2013-04-20 10:32:00,36.0,8.0,-100.00,NE,52,1.0,4.0,31,0.00,,,0.00,492.000000,,2013-04-20 18:32:00,
2013-04-20 10:41:00,36.0,8.0,-100.00,NE,52,1.0,4.0,31,0.00,,,0.00,492.000000,,2013-04-20 18:41:00,
2013-04-20 10:52:00,36.0,8.0,-100.00,NE,52,1.0,4.0,31,0.00,,,0.00,492.000000,,2013-04-20 18:52:00,
2013-04-20 11:21:00,39.0,7.0,-100.00,ENE,64,1.0,4.0,26,0.00,,,0.00,625.000000,,2013-04-20 19:21:00,
2013-04-20 11:32:00,39.0,7.0,-100.00,ENE,64,1.0,4.0,26,0.00,,,0.00,625.000000,,2013-04-20 19:32:00,
2013-04-20 11:42:00,39.0,7.0,-100.00,ENE,64,1.0,4.0,26,0.00,,,0.00,625.000000,,2013-04-20 19:42:00,
2013-04-20 11:52:00,39.0,7.0,-100.00,ENE,64,1.0,4.0,26,0.00,,,0.00,625.000000,,2013-04-20 19:52:00,
2013-04-20 12:21:00,40.0,6.0,-100.00,North,359,3.0,6.0,24,0.00,,,0.00,724.000000,,2013-04-20 20:21:00,
2013-04-20 12:32:00,40.0,6.0,-100.00,North,359,3.0,6.0,24,0.00,,,0.00,724.000000,,2013-04-20 20:32:00,
2013-04-20 12:42:00,40.0,6.0,-100.00,North,359,3.0,6.0,24,0.00,,,0.00,724.000000,,2013-04-20 20:42:00,
2013-04-20 12:51:00,40.0,6.0,-100.00,North,359,3.0,6.0,24,0.00,,,0.00,724.000000,,2013-04-20 20:51:00,
2013-04-20 13:21:00,42.0,9.0,-100.00,West,272,2.0,6.0,25,0.00,,,0.00,783.000000,,2013-04-20 21:21:00,
2013-04-20 13:32:00,42.0,9.0,-100.00,West,272,2.0,6.0,25,0.00,,,0.00,783.000000,,2013-04-20 21:32:00,
2013-04-20 13:43:00,42.0,9.0,-100.00,West,272,2.0,6.0,25,0.00,,,0.00,783.000000,,2013-04-20 21:43:00,
2013-04-20 13:52:00,42.0,9.0,-100.00,West,272,2.0,6.0,25,0.00,,,0.00,783.000000,,2013-04-20 21:52:00,
2013-04-20 14:22:00,43.0,9.0,-100.00,NNE,15,4.0,7.0,24,0.00,,,0.00,799.000000,,2013-04-20 22:22:00,
2013-04-20 14:32:00,43.0,9.0,-100.00,NNE,15,4.0,7.0,24,0.00,,,0.00,799.000000,,2013-04-20 22:32:00,
2013-04-20 14:42:00,43.0,9.0,-100.00,NNE,15,4.0,7.0,24,0.00,,,0.00,799.000000,,2013-04-20 22:42:00,
2013-04-20 14:52:00,43.0,9.0,-100.00,NNE,15,4.0,7.0,24,0.00,,,0.00,799.000000,,2013-04-20 22:52:00,
2013-04-20 15:22:00,44.0,8.0,-100.00,North,11,3.0,9.0,22,0.00,,,0.00,765.000000,,2013-04-20 23:22:00,
2013-04-20 15:32:00,44.0,8.0,-100.00,North,11,3.0,9.0,22,0.00,,,0.00,765.000000,,2013-04-20 23:32:00,
2013-04-20 15:41:00,44.0,8.0,-100.00,North,11,3.0,9.0,22,0.00,,,0.00,765.000000,,2013-04-20 23:41:00,
2013-04-20 15:52:00,44.0,8.0,-100.00,North,11,3.0,9.0,22,0.00,,,0.00,765.000000,,2013-04-20 23:52:00,
2013-04-20 16:21:00,45.0,9.0,-100.00,NNW,337,4.0,9.0,23,0.00,,,0.00,691.000000,,2013-04-21 00:21:00,
2013-04-20 16:32:00,45.0,9.0,-100.00,NNW,337,4.0,9.0,23,0.00,,,0.00,691.000000,,2013-04-21 00:32:00,
2013-04-20 16:42:00,45.0,9.0,-100.00,NNW,337,4.0,9.0,23,0.00,,,0.00,691.000000,,2013-04-21 00:42:00,
2013-04-20 16:52:00,45.0,9.0,-100.00,NNW,337,4.0,9.0,23,0.00,,,0.00,691.000000,,2013-04-21 00:52:00,
2013-04-20 17:21:00,45.0,9.0,-100.00,WNW,294,4.0,8.0,23,0.00,,,0.00,577.000000,,2013-04-21 01:21:00,
2013-04-20 17:31:00,45.0,9.0,-100.00,WNW,294,4.0,8.0,23,0.00,,,0.00,577.000000,,2013-04-21 01:31:00,
2013-04-20 17:41:00,45.0,9.0,-100.00,WNW,294,4.0,8.0,23,0.00,,,0.00,577.000000,,2013-04-21 01:41:00,
2013-04-20 17:52:00,45.0,9.0,-100.00,WNW,294,4.0,8.0,23,0.00,,,0.00,577.000000,,2013-04-21 01:52:00,
2013-04-20 18:21:00,45.0,10.0,-100.00,NW,326,3.0,9.0,24,0.00,,,0.00,437.000000,,2013-04-21 02:21:00,
2013-04-20 18:32:00,45.0,10.0,-100.00,NW,326,3.0,9.0,24,0.00,,,0.00,437.000000,,2013-04-21 02:32:00,
2013-04-20 18:41:00,45.0,10.0,-100.00,NW,326,3.0,9.0,24,0.00,,,0.00,437.000000,,2013-04-21 02:41:00,
2013-04-20 18:51:00,45.0,10.0,-100.00,NW,326,3.0,9.0,24,0.00,,,0.00,437.000000,,2013-04-21 02:51:00,
2013-04-20 19:21:00,43.0,9.0,-100.00,WNW,299,3.0,9.0,24,0.00,,,0.00,287.000000,,2013-04-21 03:21:00,
2013-04-20 19:32:00,43.0,9.0,-100.00,WNW,299,3.0,9.0,24,0.00,,,0.00,287.000000,,2013-04-21 03:32:00,
2013-04-20 19:42:00,43.0,9.0,-100.00,WNW,299,3.0,9.0,24,0.00,,,0.00,287.000000,,2013-04-21 03:42:00,
2013-04-20 19:52:00,43.0,9.0,-100.00,WNW,299,3.0,9.0,24,0.00,,,0.00,287.000000,,2013-04-21 03:52:00,
2013-04-20 20:22:00,41.0,9.0,-100.00,WNW,283,2.0,7.0,26,0.00,,,0.00,141.000000,,2013-04-21 04:22:00,
2013-04-20 20:33:00,41.0,9.0,-100.00,WNW,283,2.0,7.0,26,0.00,,,0.00,141.000000,,2013-04-21 04:33:00,
2013-04-20 20:42:00,41.0,9.0,-100.00,WNW,283,2.0,7.0,26,0.00,,,0.00,141.000000,,2013-04-21 04:42:00,
2013-04-20 20:52:00,41.0,9.0,-100.00,WNW,283,2.0,7.0,26,0.00,,,0.00,141.000000,,2013-04-21 04:52:00,
2013-04-20 21:22:00,30.0,10.0,-100.00,SSW,194,1.0,5.0,42,0.00,,,0.00,29.000000,,2013-04-21 05:22:00,
2013-04-20 21:32:00,30.0,10.0,-100.00,SSW,194,1.0,5.0,42,0.00,,,0.00,29.000000,,2013-04-21 05:32:00,
2013-04-20 21:42:00,30.0,10.0,-100.00,SSW,194,1.0,5.0,42,0.00,,,0.00,29.000000,,2013-04-21 05:42:00,
2013-04-20 21:52:00,30.0,10.0,-100.00,SSW,194,1.0,5.0,42,0.00,,,0.00,29.000000,,2013-04-21 05:52:00,
2013-04-20 22:21:00,25.0,11.0,-100.00,SW,232,0.0,4.0,54,0.00,,,0.00,3.000000,,2013-04-21 06:21:00,
2013-04-20 22:32:00,25.0,11.0,-100.00,SW,232,0.0,4.0,54,0.00,,,0.00,3.000000,,2013-04-21 06:32:00,
2013-04-20 22:42:00,25.0,11.0,-100.00,SW,232,0.0,4.0,54,0.00,,,0.00,3.000000,,2013-04-21 06:42:00,
2013-04-20 22:51:00,25.0,11.0,-100.00,SW,232,0.0,4.0,54,0.00,,,0.00,3.000000,,2013-04-21 06:51:00,
2013-04-20 23:21:00,22.0,10.0,-100.00,ESE,116,1.0,4.0,60,0.00,,,0.00,0.000000,,2013-04-21 07:21:00,
2013-04-20 23:31:00,22.0,10.0,-100.00,ESE,116,1.0,4.0,60,0.00,,,0.00,0.000000,,2013-04-21 07:31:00,
2013-04-20 23:41:00,22.0,10.0,-100.00,ESE,116,1.0,4.0,60,0.00,,,0.00,0.000000,,2013-04-21 07:41:00,
2013-04-20 23:52:00,22.0,10.0,-100.00,ESE,116,1.0,4.0,60,0.00,,,0.00,0.000000,,2013-04-21 07:52:00,